sensor_id;sensor_type;location;lat;lon;timestamp;temperature;humidity
64396;DHT22;50717;53.360;6.290;2023-01-16T00:00:59;3.40;99.90
64396;DHT22;50717;53.360;6.290;2023-01-16T00:05:51;3.50;99.90
64396;DHT22;50717;53.360;6.290;2023-01-16T00:13:11;3.20;99.90
64396;DHT22;50717;53.360;6.290;2023-01-16T00:20:29;3.40;99.90
64396;DHT22;50717;53.360;6.290;2023-01-16T00:22:55;4.20;99.90
64396;DHT22;50717;53.360;6.290;2023-01-16T00:27:47;3.90;99.90
64396;DHT22;50717;53.360;6.290;2023-01-16T00:30:13;3.90;99.90
64396;DHT22;50717;53.360;6.290;2023-01-16T00:35:05;3.90;99.90
64396;DHT22;50717;53.360;6.290;2023-01-16T00:37:31;4.40;99.90
64396;DHT22;50717;53.360;6.290;2023-01-16T00:44:48;3.80;99.90
64396;DHT22;50717;53.360;6.290;2023-01-16T00:47:14;4.50;99.90
64396;DHT22;50717;53.360;6.290;2023-01-16T00:49:40;4.70;99.90
64396;DHT22;50717;53.360;6.290;2023-01-16T00:54:31;4.40;99.90
64396;DHT22;50717;53.360;6.290;2023-01-16T00:56:57;3.80;99.90
64396;DHT22;50717;53.360;6.290;2023-01-16T00:59:23;4.90;99.90
64396;DHT22;50717;53.360;6.290;2023-01-16T01:01:48;4.60;99.90
64396;DHT22;50717;53.360;6.290;2023-01-16T01:06:42;4.50;99.90
64396;DHT22;50717;53.360;6.290;2023-01-16T01:09:08;3.90;99.90
64396;DHT22;50717;53.360;6.290;2023-01-16T01:11:33;4.90;99.90
64396;DHT22;50717;53.360;6.290;2023-01-16T01:13:59;4.40;99.90
64396;DHT22;50717;53.360;6.290;2023-01-16T01:18:51;4.00;99.90
64396;DHT22;50717;53.360;6.290;2023-01-16T01:21:17;4.50;99.90
64396;DHT22;50717;53.360;6.290;2023-01-16T01:26:10;3.60;99.90
64396;DHT22;50717;53.360;6.290;2023-01-16T01:28:36;4.10;99.90
64396;DHT22;50717;53.360;6.290;2023-01-16T01:31:06;3.50;99.90
64396;DHT22;50717;53.360;6.290;2023-01-16T01:33:32;4.20;99.90
64396;DHT22;50717;53.360;6.290;2023-01-16T01:35:58;4.30;99.90
64396;DHT22;50717;53.360;6.290;2023-01-16T01:40:50;3.40;99.90
64396;DHT22;50717;53.360;6.290;2023-01-16T01:45:46;4.00;99.90
64396;DHT22;50717;53.360;6.290;2023-01-16T01:55:40;4.20;99.90
64396;DHT22;50717;53.360;6.290;2023-01-16T01:58:07;3.50;99.90
64396;DHT22;50717;53.360;6.290;2023-01-16T02:00:34;4.20;99.90
64396;DHT22;50717;53.360;6.290;2023-01-16T02:05:40;4.10;99.90
64396;DHT22;50717;53.360;6.290;2023-01-16T02:13:14;3.50;99.90
64396;DHT22;50717;53.360;6.290;2023-01-16T02:53:17;3.60;99.90
64396;DHT22;50717;53.360;6.290;2023-01-16T03:03:41;2.80;99.90
64396;DHT22;50717;53.360;6.290;2023-01-16T03:19:42;3.30;99.90
64396;DHT22;50717;53.360;6.290;2023-01-16T03:22:30;3.20;99.90
64396;DHT22;50717;53.360;6.290;2023-01-16T03:25:18;4.00;99.90
64396;DHT22;50717;53.360;6.290;2023-01-16T03:38:00;4.30;99.90
64396;DHT22;50717;53.360;6.290;2023-01-16T03:43:03;4.30;99.90
64396;DHT22;50717;53.360;6.290;2023-01-16T03:45:39;3.90;99.90
64396;DHT22;50717;53.360;6.290;2023-01-16T03:50:42;3.90;99.90
64396;DHT22;50717;53.360;6.290;2023-01-16T03:53:12;3.70;99.90
64396;DHT22;50717;53.360;6.290;2023-01-16T03:55:54;3.60;99.90
64396;DHT22;50717;53.360;6.290;2023-01-16T03:58:32;3.80;99.90
64396;DHT22;50717;53.360;6.290;2023-01-16T04:03:44;4.10;99.90
64396;DHT22;50717;53.360;6.290;2023-01-16T04:06:17;3.60;99.90
64396;DHT22;50717;53.360;6.290;2023-01-16T04:11:13;4.50;99.90
64396;DHT22;50717;53.360;6.290;2023-01-16T04:13:43;3.70;99.90
64396;DHT22;50717;53.360;6.290;2023-01-16T04:16:11;3.70;99.90
64396;DHT22;50717;53.360;6.290;2023-01-16T04:18:40;3.70;99.90
64396;DHT22;50717;53.360;6.290;2023-01-16T04:30:52;4.40;99.90
64396;DHT22;50717;53.360;6.290;2023-01-16T04:33:18;4.60;99.90
64396;DHT22;50717;53.360;6.290;2023-01-16T04:38:09;4.50;99.90
64396;DHT22;50717;53.360;6.290;2023-01-16T04:40:37;4.50;99.90
64396;DHT22;50717;53.360;6.290;2023-01-16T04:43:03;3.70;99.90
64396;DHT22;50717;53.360;6.290;2023-01-16T04:47:55;4.50;99.90
64396;DHT22;50717;53.360;6.290;2023-01-16T04:50:20;4.50;99.90
64396;DHT22;50717;53.360;6.290;2023-01-16T04:52:47;4.00;99.90
64396;DHT22;50717;53.360;6.290;2023-01-16T04:55:12;4.10;99.90
64396;DHT22;50717;53.360;6.290;2023-01-16T04:57:38;4.30;99.90
64396;DHT22;50717;53.360;6.290;2023-01-16T05:00:08;3.80;99.90
64396;DHT22;50717;53.360;6.290;2023-01-16T05:05:00;3.90;99.90
64396;DHT22;50717;53.360;6.290;2023-01-16T05:14:45;4.00;99.90
64396;DHT22;50717;53.360;6.290;2023-01-16T05:17:10;4.00;99.90
64396;DHT22;50717;53.360;6.290;2023-01-16T05:22:02;4.00;99.90
64396;DHT22;50717;53.360;6.290;2023-01-16T05:24:28;4.60;99.90
64396;DHT22;50717;53.360;6.290;2023-01-16T05:26:53;3.70;99.90
64396;DHT22;50717;53.360;6.290;2023-01-16T05:29:19;3.80;99.90
64396;DHT22;50717;53.360;6.290;2023-01-16T05:34:11;4.00;99.90
64396;DHT22;50717;53.360;6.290;2023-01-16T05:36:36;4.50;99.90
64396;DHT22;50717;53.360;6.290;2023-01-16T05:39:02;3.80;99.90
64396;DHT22;50717;53.360;6.290;2023-01-16T05:41:28;3.90;99.90
64396;DHT22;50717;53.360;6.290;2023-01-16T05:46:20;4.30;99.90
64396;DHT22;50717;53.360;6.290;2023-01-16T05:48:45;4.10;99.90
64396;DHT22;50717;53.360;6.290;2023-01-16T05:51:11;4.40;99.90
64396;DHT22;50717;53.360;6.290;2023-01-16T05:53:37;3.80;99.90
64396;DHT22;50717;53.360;6.290;2023-01-16T05:58:34;4.20;99.90
64396;DHT22;50717;53.360;6.290;2023-01-16T06:01:00;4.40;99.90
64396;DHT22;50717;53.360;6.290;2023-01-16T06:03:26;3.50;99.90
64396;DHT22;50717;53.360;6.290;2023-01-16T06:05:51;4.30;99.90
64396;DHT22;50717;53.360;6.290;2023-01-16T06:13:13;3.60;99.90
64396;DHT22;50717;53.360;6.290;2023-01-16T06:15:39;3.50;99.90
64396;DHT22;50717;53.360;6.290;2023-01-16T06:18:05;3.90;99.90
64396;DHT22;50717;53.360;6.290;2023-01-16T06:20:30;4.10;99.90
64396;DHT22;50717;53.360;6.290;2023-01-16T06:25:22;3.60;99.90
64396;DHT22;50717;53.360;6.290;2023-01-16T06:37:36;4.10;99.90
64396;DHT22;50717;53.360;6.290;2023-01-16T06:42:28;4.40;99.90
64396;DHT22;50717;53.360;6.290;2023-01-16T06:47:20;4.50;99.90
64396;DHT22;50717;53.360;6.290;2023-01-16T06:49:46;4.30;99.90
64396;DHT22;50717;53.360;6.290;2023-01-16T06:52:11;3.90;99.90
64396;DHT22;50717;53.360;6.290;2023-01-16T07:08:38;3.30;99.90
64396;DHT22;50717;53.360;6.290;2023-01-16T07:11:04;4.10;99.90
64396;DHT22;50717;53.360;6.290;2023-01-16T07:13:30;3.70;99.90
64396;DHT22;50717;53.360;6.290;2023-01-16T07:15:56;3.50;99.90
64396;DHT22;50717;53.360;6.290;2023-01-16T07:18:41;3.60;99.90
64396;DHT22;50717;53.360;6.290;2023-01-16T07:21:36;3.70;99.90
64396;DHT22;50717;53.360;6.290;2023-01-16T07:24:25;3.40;99.90
64396;DHT22;50717;53.360;6.290;2023-01-16T07:26:56;3.60;99.90
64396;DHT22;50717;53.360;6.290;2023-01-16T07:29:25;3.20;99.90
64396;DHT22;50717;53.360;6.290;2023-01-16T07:31:51;3.50;99.90
64396;DHT22;50717;53.360;6.290;2023-01-16T07:34:17;3.50;99.90
64396;DHT22;50717;53.360;6.290;2023-01-16T07:36:43;3.70;99.90
64396;DHT22;50717;53.360;6.290;2023-01-16T07:39:09;3.20;99.90
64396;DHT22;50717;53.360;6.290;2023-01-16T07:41:34;3.20;99.90
64396;DHT22;50717;53.360;6.290;2023-01-16T07:44:00;3.50;99.90
64396;DHT22;50717;53.360;6.290;2023-01-16T07:46:26;3.80;99.90
64396;DHT22;50717;53.360;6.290;2023-01-16T07:48:51;3.40;99.90
64396;DHT22;50717;53.360;6.290;2023-01-16T07:51:19;3.60;99.90
64396;DHT22;50717;53.360;6.290;2023-01-16T07:53:44;3.10;99.90
64396;DHT22;50717;53.360;6.290;2023-01-16T07:58:36;3.70;99.90
64396;DHT22;50717;53.360;6.290;2023-01-16T08:01:03;3.40;99.90
64396;DHT22;50717;53.360;6.290;2023-01-16T08:10:58;2.90;99.90
64396;DHT22;50717;53.360;6.290;2023-01-16T08:13:25;2.80;99.90
64396;DHT22;50717;53.360;6.290;2023-01-16T08:15:51;3.50;99.90
64396;DHT22;50717;53.360;6.290;2023-01-16T08:18:18;2.90;99.90
64396;DHT22;50717;53.360;6.290;2023-01-16T08:20:44;3.80;99.90
64396;DHT22;50717;53.360;6.290;2023-01-16T08:23:11;3.50;99.90
64396;DHT22;50717;53.360;6.290;2023-01-16T08:25:36;2.90;99.90
64396;DHT22;50717;53.360;6.290;2023-01-16T08:28:02;2.90;99.90
64396;DHT22;50717;53.360;6.290;2023-01-16T08:30:28;3.10;99.90
64396;DHT22;50717;53.360;6.290;2023-01-16T08:33:01;2.90;99.90
64396;DHT22;50717;53.360;6.290;2023-01-16T08:35:27;3.60;99.90
64396;DHT22;50717;53.360;6.290;2023-01-16T08:37:53;3.60;99.90
64396;DHT22;50717;53.360;6.290;2023-01-16T08:40:19;3.80;99.90
64396;DHT22;50717;53.360;6.290;2023-01-16T08:42:46;2.70;99.90
64396;DHT22;50717;53.360;6.290;2023-01-16T08:45:30;3.80;99.90
64396;DHT22;50717;53.360;6.290;2023-01-16T08:48:21;3.30;99.90
64396;DHT22;50717;53.360;6.290;2023-01-16T08:51:13;3.40;99.90
64396;DHT22;50717;53.360;6.290;2023-01-16T08:53:55;3.40;99.90
64396;DHT22;50717;53.360;6.290;2023-01-16T08:56:21;3.20;99.90
64396;DHT22;50717;53.360;6.290;2023-01-16T08:58:47;3.40;99.90
64396;DHT22;50717;53.360;6.290;2023-01-16T09:01:13;4.10;99.90
64396;DHT22;50717;53.360;6.290;2023-01-16T09:03:40;3.60;99.90
64396;DHT22;50717;53.360;6.290;2023-01-16T09:06:06;3.70;99.90
64396;DHT22;50717;53.360;6.290;2023-01-16T09:08:32;4.00;99.90
64396;DHT22;50717;53.360;6.290;2023-01-16T09:10:58;3.80;99.90
64396;DHT22;50717;53.360;6.290;2023-01-16T09:13:42;4.00;99.90
64396;DHT22;50717;53.360;6.290;2023-01-16T09:16:18;3.60;99.90
64396;DHT22;50717;53.360;6.290;2023-01-16T09:18:44;3.90;99.90
64396;DHT22;50717;53.360;6.290;2023-01-16T09:21:10;3.60;99.90
64396;DHT22;50717;53.360;6.290;2023-01-16T09:23:35;4.10;99.90
64396;DHT22;50717;53.360;6.290;2023-01-16T09:26:01;3.50;99.90
64396;DHT22;50717;53.360;6.290;2023-01-16T09:28:27;3.40;99.90
64396;DHT22;50717;53.360;6.290;2023-01-16T09:30:52;3.60;99.90
64396;DHT22;50717;53.360;6.290;2023-01-16T09:33:18;3.50;99.90
64396;DHT22;50717;53.360;6.290;2023-01-16T09:35:44;3.80;99.90
64396;DHT22;50717;53.360;6.290;2023-01-16T09:38:09;3.50;99.90
64396;DHT22;50717;53.360;6.290;2023-01-16T09:40:36;4.20;99.90
64396;DHT22;50717;53.360;6.290;2023-01-16T09:43:23;4.20;99.90
64396;DHT22;50717;53.360;6.290;2023-01-16T09:46:19;4.20;99.90
64396;DHT22;50717;53.360;6.290;2023-01-16T09:48:55;4.20;99.90
64396;DHT22;50717;53.360;6.290;2023-01-16T09:51:34;4.40;99.90
64396;DHT22;50717;53.360;6.290;2023-01-16T09:54:22;4.20;99.90
64396;DHT22;50717;53.360;6.290;2023-01-16T09:57:12;3.70;99.90
64396;DHT22;50717;53.360;6.290;2023-01-16T10:02:34;3.80;99.90
64396;DHT22;50717;53.360;6.290;2023-01-16T10:05:02;4.20;99.90
64396;DHT22;50717;53.360;6.290;2023-01-16T10:13:31;4.50;99.90
64396;DHT22;50717;53.360;6.290;2023-01-16T10:16:30;3.90;99.90
64396;DHT22;50717;53.360;6.290;2023-01-16T10:24:29;4.30;99.90
64396;DHT22;50717;53.360;6.290;2023-01-16T10:27:13;4.40;99.90
64396;DHT22;50717;53.360;6.290;2023-01-16T10:30:08;4.60;99.90
64396;DHT22;50717;53.360;6.290;2023-01-16T10:32:50;4.60;99.90
64396;DHT22;50717;53.360;6.290;2023-01-16T10:35:23;3.80;99.90
64396;DHT22;50717;53.360;6.290;2023-01-16T10:37:51;3.80;99.90
64396;DHT22;50717;53.360;6.290;2023-01-16T10:40:21;4.70;99.90
64396;DHT22;50717;53.360;6.290;2023-01-16T10:43:01;4.20;99.90
64396;DHT22;50717;53.360;6.290;2023-01-16T10:45:48;4.20;99.90
64396;DHT22;50717;53.360;6.290;2023-01-16T10:48:43;4.00;99.90
64396;DHT22;50717;53.360;6.290;2023-01-16T10:51:27;4.10;99.90
64396;DHT22;50717;53.360;6.290;2023-01-16T10:53:53;4.60;99.90
64396;DHT22;50717;53.360;6.290;2023-01-16T10:56:19;4.50;99.90
64396;DHT22;50717;53.360;6.290;2023-01-16T10:58:44;4.40;99.90
64396;DHT22;50717;53.360;6.290;2023-01-16T11:03:56;4.10;99.90
64396;DHT22;50717;53.360;6.290;2023-01-16T11:06:26;4.20;99.90
64396;DHT22;50717;53.360;6.290;2023-01-16T11:09:18;4.90;99.90
64396;DHT22;50717;53.360;6.290;2023-01-16T11:11:45;4.10;99.90
64396;DHT22;50717;53.360;6.290;2023-01-16T11:14:39;4.40;99.90
64396;DHT22;50717;53.360;6.290;2023-01-16T11:17:32;3.70;99.90
64396;DHT22;50717;53.360;6.290;2023-01-16T11:20:31;4.00;99.90
64396;DHT22;50717;53.360;6.290;2023-01-16T11:23:00;4.30;99.90
64396;DHT22;50717;53.360;6.290;2023-01-16T11:25:30;4.00;99.90
64396;DHT22;50717;53.360;6.290;2023-01-16T11:27:58;4.00;99.90
64396;DHT22;50717;53.360;6.290;2023-01-16T11:30:32;3.80;99.90
64396;DHT22;50717;53.360;6.290;2023-01-16T11:32:58;3.90;99.90
64396;DHT22;50717;53.360;6.290;2023-01-16T11:35:31;4.30;99.90
64396;DHT22;50717;53.360;6.290;2023-01-16T11:37:58;3.60;99.90
64396;DHT22;50717;53.360;6.290;2023-01-16T11:40:26;4.40;99.90
64396;DHT22;50717;53.360;6.290;2023-01-16T11:42:57;4.30;99.90
64396;DHT22;50717;53.360;6.290;2023-01-16T11:45:47;3.90;99.90
64396;DHT22;50717;53.360;6.290;2023-01-16T11:48:42;3.50;99.90
64396;DHT22;50717;53.360;6.290;2023-01-16T11:51:18;4.30;99.90
64396;DHT22;50717;53.360;6.290;2023-01-16T11:53:45;4.40;99.90
64396;DHT22;50717;53.360;6.290;2023-01-16T11:56:23;4.10;99.90
64396;DHT22;50717;53.360;6.290;2023-01-16T12:04:29;3.90;99.90
64396;DHT22;50717;53.360;6.290;2023-01-16T12:12:13;4.10;99.90
64396;DHT22;50717;53.360;6.290;2023-01-16T12:15:22;4.00;99.90
64396;DHT22;50717;53.360;6.290;2023-01-16T12:23:59;3.80;99.90
64396;DHT22;50717;53.360;6.290;2023-01-16T12:32:26;4.00;99.90
64396;DHT22;50717;53.360;6.290;2023-01-16T12:46:03;4.30;99.90
64396;DHT22;50717;53.360;6.290;2023-01-16T12:51:13;3.60;99.90
64396;DHT22;50717;53.360;6.290;2023-01-16T13:01:47;4.10;99.90
64396;DHT22;50717;53.360;6.290;2023-01-16T13:06:52;4.30;99.90
64396;DHT22;50717;53.360;6.290;2023-01-16T13:09:45;4.10;99.90
64396;DHT22;50717;53.360;6.290;2023-01-16T13:12:26;3.60;99.90
64396;DHT22;50717;53.360;6.290;2023-01-16T13:15:19;3.90;99.90
64396;DHT22;50717;53.360;6.290;2023-01-16T13:17:49;3.80;99.90
64396;DHT22;50717;53.360;6.290;2023-01-16T13:20:18;4.40;99.90
64396;DHT22;50717;53.360;6.290;2023-01-16T13:22:52;4.60;99.90
64396;DHT22;50717;53.360;6.290;2023-01-16T13:28:00;3.60;99.90
64396;DHT22;50717;53.360;6.290;2023-01-16T13:30:27;4.00;99.90
64396;DHT22;50717;53.360;6.290;2023-01-16T13:33:01;4.30;99.90
64396;DHT22;50717;53.360;6.290;2023-01-16T13:38:42;4.00;99.90
64396;DHT22;50717;53.360;6.290;2023-01-16T13:44:11;4.60;99.90
64396;DHT22;50717;53.360;6.290;2023-01-16T13:49:31;4.10;99.90
64396;DHT22;50717;53.360;6.290;2023-01-16T13:51:57;4.50;99.90
64396;DHT22;50717;53.360;6.290;2023-01-16T13:54:35;4.70;99.90
64396;DHT22;50717;53.360;6.290;2023-01-16T13:57:12;4.50;99.90
64396;DHT22;50717;53.360;6.290;2023-01-16T13:59:47;4.60;99.90
64396;DHT22;50717;53.360;6.290;2023-01-16T14:05:15;4.00;99.90
64396;DHT22;50717;53.360;6.290;2023-01-16T14:13:25;4.50;99.90
64396;DHT22;50717;53.360;6.290;2023-01-16T14:21:24;4.40;99.90
64396;DHT22;50717;53.360;6.290;2023-01-16T14:29:16;3.90;99.90
64396;DHT22;50717;53.360;6.290;2023-01-16T14:31:50;4.40;99.90
64396;DHT22;50717;53.360;6.290;2023-01-16T14:34:36;4.20;99.90
64396;DHT22;50717;53.360;6.290;2023-01-16T14:39:46;4.40;99.90
64396;DHT22;50717;53.360;6.290;2023-01-16T14:42:27;4.60;99.90
64396;DHT22;50717;53.360;6.290;2023-01-16T14:45:28;4.30;99.90
64396;DHT22;50717;53.360;6.290;2023-01-16T14:48:31;4.60;99.90
64396;DHT22;50717;53.360;6.290;2023-01-16T14:51:30;3.90;99.90
64396;DHT22;50717;53.360;6.290;2023-01-16T14:54:31;5.10;99.90
64396;DHT22;50717;53.360;6.290;2023-01-16T14:57:19;4.40;99.90
64396;DHT22;50717;53.360;6.290;2023-01-16T15:00:06;4.60;99.90
64396;DHT22;50717;53.360;6.290;2023-01-16T15:03:12;4.70;99.90
64396;DHT22;50717;53.360;6.290;2023-01-16T15:05:49;4.70;99.90
64396;DHT22;50717;53.360;6.290;2023-01-16T15:08:33;4.90;99.90
64396;DHT22;50717;53.360;6.290;2023-01-16T15:17:30;4.50;99.90
64396;DHT22;50717;53.360;6.290;2023-01-16T15:20:26;4.10;99.90
64396;DHT22;50717;53.360;6.290;2023-01-16T15:26:23;4.90;99.90
64396;DHT22;50717;53.360;6.290;2023-01-16T15:31:33;4.10;99.90
64396;DHT22;50717;53.360;6.290;2023-01-16T15:34:05;4.30;99.90
64396;DHT22;50717;53.360;6.290;2023-01-16T15:36:41;4.90;99.90
64396;DHT22;50717;53.360;6.290;2023-01-16T15:44:39;4.60;99.90
64396;DHT22;50717;53.360;6.290;2023-01-16T15:52:46;4.70;99.90
64396;DHT22;50717;53.360;6.290;2023-01-16T15:55:20;5.00;99.90
64396;DHT22;50717;53.360;6.290;2023-01-16T15:57:52;4.90;99.90
64396;DHT22;50717;53.360;6.290;2023-01-16T16:00:34;4.30;99.90
64396;DHT22;50717;53.360;6.290;2023-01-16T16:03:21;4.30;99.90
64396;DHT22;50717;53.360;6.290;2023-01-16T16:05:50;4.30;99.90
64396;DHT22;50717;53.360;6.290;2023-01-16T16:08:27;4.20;99.90
64396;DHT22;50717;53.360;6.290;2023-01-16T16:10:56;4.40;99.90
64396;DHT22;50717;53.360;6.290;2023-01-16T16:13:42;5.20;99.90
64396;DHT22;50717;53.360;6.290;2023-01-16T16:19:34;4.20;99.90
64396;DHT22;50717;53.360;6.290;2023-01-16T16:28:43;4.30;99.90
64396;DHT22;50717;53.360;6.290;2023-01-16T16:31:32;4.10;99.90
64396;DHT22;50717;53.360;6.290;2023-01-16T16:34:06;4.20;99.90
64396;DHT22;50717;53.360;6.290;2023-01-16T16:36:42;4.80;99.90
64396;DHT22;50717;53.360;6.290;2023-01-16T16:39:47;4.30;99.90
64396;DHT22;50717;53.360;6.290;2023-01-16T16:49:58;4.30;99.90
64396;DHT22;50717;53.360;6.290;2023-01-16T16:52:33;4.90;99.90
64396;DHT22;50717;53.360;6.290;2023-01-16T16:55:03;4.40;99.90
64396;DHT22;50717;53.360;6.290;2023-01-16T16:57:42;4.40;99.90
64396;DHT22;50717;53.360;6.290;2023-01-16T17:00:15;4.80;99.90
64396;DHT22;50717;53.360;6.290;2023-01-16T17:02:42;4.90;99.90
64396;DHT22;50717;53.360;6.290;2023-01-16T17:05:11;4.30;99.90
64396;DHT22;50717;53.360;6.290;2023-01-16T17:07:37;4.10;99.90
64396;DHT22;50717;53.360;6.290;2023-01-16T17:10:15;4.80;99.90
64396;DHT22;50717;53.360;6.290;2023-01-16T17:12:41;4.80;99.90
64396;DHT22;50717;53.360;6.290;2023-01-16T17:15:08;4.00;99.90
64396;DHT22;50717;53.360;6.290;2023-01-16T17:17:36;4.40;99.90
64396;DHT22;50717;53.360;6.290;2023-01-16T17:20:03;4.90;99.90
64396;DHT22;50717;53.360;6.290;2023-01-16T17:22:29;4.50;99.90
64396;DHT22;50717;53.360;6.290;2023-01-16T17:24:55;4.70;99.90
64396;DHT22;50717;53.360;6.290;2023-01-16T17:27:21;4.90;99.90
64396;DHT22;50717;53.360;6.290;2023-01-16T17:29:46;4.30;99.90
64396;DHT22;50717;53.360;6.290;2023-01-16T17:32:29;4.00;99.90
64396;DHT22;50717;53.360;6.290;2023-01-16T17:34:56;4.30;99.90
64396;DHT22;50717;53.360;6.290;2023-01-16T17:37:22;4.20;99.90
64396;DHT22;50717;53.360;6.290;2023-01-16T17:39:48;4.70;99.90
64396;DHT22;50717;53.360;6.290;2023-01-16T17:42:14;5.00;99.90
64396;DHT22;50717;53.360;6.290;2023-01-16T17:44:39;5.20;99.90
64396;DHT22;50717;53.360;6.290;2023-01-16T17:47:23;4.70;99.90
64396;DHT22;50717;53.360;6.290;2023-01-16T17:49:49;5.10;99.90
64396;DHT22;50717;53.360;6.290;2023-01-16T17:52:33;4.60;99.90
64396;DHT22;50717;53.360;6.290;2023-01-16T17:55:01;4.40;99.90
64396;DHT22;50717;53.360;6.290;2023-01-16T17:57:45;4.40;99.90
64396;DHT22;50717;53.360;6.290;2023-01-16T18:00:11;4.90;99.90
64396;DHT22;50717;53.360;6.290;2023-01-16T18:02:37;4.20;99.90
64396;DHT22;50717;53.360;6.290;2023-01-16T18:05:04;4.10;99.90
64396;DHT22;50717;53.360;6.290;2023-01-16T18:07:31;4.40;99.90
64396;DHT22;50717;53.360;6.290;2023-01-16T18:09:57;4.80;99.90
64396;DHT22;50717;53.360;6.290;2023-01-16T18:12:22;4.20;99.90
64396;DHT22;50717;53.360;6.290;2023-01-16T18:15:07;4.50;99.90
64396;DHT22;50717;53.360;6.290;2023-01-16T18:18:05;4.20;99.90
64396;DHT22;50717;53.360;6.290;2023-01-16T18:20:31;4.70;99.90
64396;DHT22;50717;53.360;6.290;2023-01-16T18:22:56;4.80;99.90
64396;DHT22;50717;53.360;6.290;2023-01-16T18:25:22;4.20;99.90
64396;DHT22;50717;53.360;6.290;2023-01-16T18:27:47;4.70;99.90
64396;DHT22;50717;53.360;6.290;2023-01-16T18:30:13;4.70;99.90
64396;DHT22;50717;53.360;6.290;2023-01-16T18:35:07;4.40;99.90
64396;DHT22;50717;53.360;6.290;2023-01-16T18:37:41;4.50;99.90
64396;DHT22;50717;53.360;6.290;2023-01-16T18:40:27;3.70;99.90
64396;DHT22;50717;53.360;6.290;2023-01-16T18:43:11;3.60;99.90
64396;DHT22;50717;53.360;6.290;2023-01-16T18:45:55;3.70;99.90
64396;DHT22;50717;53.360;6.290;2023-01-16T18:48:40;4.50;99.90
64396;DHT22;50717;53.360;6.290;2023-01-16T18:51:24;4.20;99.90
64396;DHT22;50717;53.360;6.290;2023-01-16T18:54:17;3.50;99.90
64396;DHT22;50717;53.360;6.290;2023-01-16T18:59:52;3.80;99.90
64396;DHT22;50717;53.360;6.290;2023-01-16T19:02:45;3.30;99.90
64396;DHT22;50717;53.360;6.290;2023-01-16T19:05:12;3.80;99.90
64396;DHT22;50717;53.360;6.290;2023-01-16T19:07:39;3.20;99.90
64396;DHT22;50717;53.360;6.290;2023-01-16T19:15:04;4.00;99.90
64396;DHT22;50717;53.360;6.290;2023-01-16T19:19:56;3.10;99.90
64396;DHT22;50717;53.360;6.290;2023-01-16T19:22:22;3.50;99.90
64396;DHT22;50717;53.360;6.290;2023-01-16T19:24:49;3.60;99.90
64396;DHT22;50717;53.360;6.290;2023-01-16T19:27:15;3.60;99.90
64396;DHT22;50717;53.360;6.290;2023-01-16T19:29:41;3.30;99.90
64396;DHT22;50717;53.360;6.290;2023-01-16T19:32:07;2.90;99.90
64396;DHT22;50717;53.360;6.290;2023-01-16T19:34:33;3.30;99.90
64396;DHT22;50717;53.360;6.290;2023-01-16T19:37:02;3.20;99.90
64396;DHT22;50717;53.360;6.290;2023-01-16T19:39:32;3.00;99.90
64396;DHT22;50717;53.360;6.290;2023-01-16T19:41:59;3.20;99.90
64396;DHT22;50717;53.360;6.290;2023-01-16T19:44:44;2.90;99.90
64396;DHT22;50717;53.360;6.290;2023-01-16T19:47:28;2.60;99.90
64396;DHT22;50717;53.360;6.290;2023-01-16T19:49:55;2.60;99.90
64396;DHT22;50717;53.360;6.290;2023-01-16T19:52:21;3.20;99.90
64396;DHT22;50717;53.360;6.290;2023-01-16T19:54:47;2.90;99.90
64396;DHT22;50717;53.360;6.290;2023-01-16T19:57:13;3.20;99.90
64396;DHT22;50717;53.360;6.290;2023-01-16T20:02:07;3.10;99.90
64396;DHT22;50717;53.360;6.290;2023-01-16T20:04:36;2.70;99.90
64396;DHT22;50717;53.360;6.290;2023-01-16T20:07:04;3.30;99.90
64396;DHT22;50717;53.360;6.290;2023-01-16T20:09:34;3.10;99.90
64396;DHT22;50717;53.360;6.290;2023-01-16T20:12:01;2.60;99.90
64396;DHT22;50717;53.360;6.290;2023-01-16T20:14:45;3.00;99.90
64396;DHT22;50717;53.360;6.290;2023-01-16T20:17:11;3.20;99.90
64396;DHT22;50717;53.360;6.290;2023-01-16T20:19:38;2.50;99.90
64396;DHT22;50717;53.360;6.290;2023-01-16T20:22:05;3.10;99.90
64396;DHT22;50717;53.360;6.290;2023-01-16T20:24:31;2.90;99.90
64396;DHT22;50717;53.360;6.290;2023-01-16T20:26:57;2.80;99.90
64396;DHT22;50717;53.360;6.290;2023-01-16T20:29:25;2.90;99.90
64396;DHT22;50717;53.360;6.290;2023-01-16T20:31:51;3.00;99.90
64396;DHT22;50717;53.360;6.290;2023-01-16T20:34:17;2.80;99.90
64396;DHT22;50717;53.360;6.290;2023-01-16T20:36:42;2.90;99.90
64396;DHT22;50717;53.360;6.290;2023-01-16T20:39:08;3.00;99.90
64396;DHT22;50717;53.360;6.290;2023-01-16T20:41:34;2.60;99.90
64396;DHT22;50717;53.360;6.290;2023-01-16T20:47:10;2.60;99.90
64396;DHT22;50717;53.360;6.290;2023-01-16T20:49:37;2.90;99.90
64396;DHT22;50717;53.360;6.290;2023-01-16T20:52:03;2.70;99.90
64396;DHT22;50717;53.360;6.290;2023-01-16T20:54:29;2.70;99.90
64396;DHT22;50717;53.360;6.290;2023-01-16T20:56:56;2.50;99.90
64396;DHT22;50717;53.360;6.290;2023-01-16T20:59:23;2.50;99.90
64396;DHT22;50717;53.360;6.290;2023-01-16T21:04:16;3.00;99.90
64396;DHT22;50717;53.360;6.290;2023-01-16T21:06:43;2.80;99.90
64396;DHT22;50717;53.360;6.290;2023-01-16T21:09:10;2.60;99.90
64396;DHT22;50717;53.360;6.290;2023-01-16T21:11:37;2.90;99.90
64396;DHT22;50717;53.360;6.290;2023-01-16T21:14:21;3.00;99.90
64396;DHT22;50717;53.360;6.290;2023-01-16T21:16:49;2.80;99.90
64396;DHT22;50717;53.360;6.290;2023-01-16T21:19:34;3.20;99.90
64396;DHT22;50717;53.360;6.290;2023-01-16T21:22:23;2.70;99.90
64396;DHT22;50717;53.360;6.290;2023-01-16T21:24:49;3.20;99.90
64396;DHT22;50717;53.360;6.290;2023-01-16T21:27:19;2.90;99.90
64396;DHT22;50717;53.360;6.290;2023-01-16T21:29:54;2.90;99.90
64396;DHT22;50717;53.360;6.290;2023-01-16T21:34:47;3.40;99.90
64396;DHT22;50717;53.360;6.290;2023-01-16T21:37:13;3.50;99.90
64396;DHT22;50717;53.360;6.290;2023-01-16T21:39:39;3.80;99.90
64396;DHT22;50717;53.360;6.290;2023-01-16T21:42:05;3.80;99.90
64396;DHT22;50717;53.360;6.290;2023-01-16T21:44:49;3.30;99.90
64396;DHT22;50717;53.360;6.290;2023-01-16T21:47:33;3.70;99.90
64396;DHT22;50717;53.360;6.290;2023-01-16T21:49:59;3.50;99.90
64396;DHT22;50717;53.360;6.290;2023-01-16T21:52:25;3.50;99.90
64396;DHT22;50717;53.360;6.290;2023-01-16T21:54:50;4.10;99.90
64396;DHT22;50717;53.360;6.290;2023-01-16T21:57:16;4.30;99.90
64396;DHT22;50717;53.360;6.290;2023-01-16T21:59:42;4.20;99.90
64396;DHT22;50717;53.360;6.290;2023-01-16T22:02:12;4.10;99.90
64396;DHT22;50717;53.360;6.290;2023-01-16T22:04:38;4.40;99.90
64396;DHT22;50717;53.360;6.290;2023-01-16T22:07:04;4.20;99.90
64396;DHT22;50717;53.360;6.290;2023-01-16T22:09:29;4.30;99.90
64396;DHT22;50717;53.360;6.290;2023-01-16T22:11:55;3.90;99.90
64396;DHT22;50717;53.360;6.290;2023-01-16T22:14:39;4.50;99.90
64396;DHT22;50717;53.360;6.290;2023-01-16T22:17:24;4.20;99.90
64396;DHT22;50717;53.360;6.290;2023-01-16T22:20:12;4.40;99.90
64396;DHT22;50717;53.360;6.290;2023-01-16T22:22:42;4.50;99.90
64396;DHT22;50717;53.360;6.290;2023-01-16T22:25:14;4.10;99.90
64396;DHT22;50717;53.360;6.290;2023-01-16T22:27:40;4.30;99.90